Time;durP1;ratioP1;P1;durP2;ratioP2;P2;SDS_P1;SDS_P2;PMS_P1;PMS_P2;Temp;Humidity;BMP_temperature;BMP_pressure;BME280_temperature;BME280_humidity;BME280_pressure;Samples;Min_cycle;Max_cycle;Signal;HPM_P1;HPM_P2
2021/12/22 00:00:16;;;;;;;4.97;3.60;;;16.30;55.80;17.10;101772.00;;;;4968105;28;20172;-40
2021/12/22 00:02:46;;;;;;;4.50;3.63;;;16.30;55.80;17.00;101758.00;;;;4966767;28;20224;-39
2021/12/22 00:05:24;;;;;;;3.90;3.50;;;16.30;55.80;17.00;101767.00;;;;4968260;28;20276;-39
2021/12/22 00:07:50;;;;;;;3.40;3.13;;;16.30;55.80;17.00;101757.00;;;;4967833;28;20252;-39
2021/12/22 00:10:16;;;;;;;4.63;3.33;;;16.20;55.70;16.90;101762.00;;;;4967918;28;20751;-40
2021/12/22 00:12:41;;;;;;;4.00;3.47;;;16.20;55.70;16.90;101754.00;;;;4966598;28;20177;-40
2021/12/22 00:15:08;;;;;;;3.67;3.33;;;16.10;55.70;16.90;101763.00;;;;4967719;28;20701;-39
2021/12/22 00:17:33;;;;;;;3.57;3.27;;;16.10;55.90;16.80;101758.00;;;;4968084;28;20173;-40
2021/12/22 00:19:59;;;;;;;3.83;3.53;;;16.00;55.70;16.80;101758.00;;;;4967951;28;20830;-40
2021/12/22 00:22:25;;;;;;;3.30;3.10;;;16.00;55.80;16.80;101773.00;;;;4968007;28;20185;-40
2021/12/22 00:24:51;;;;;;;3.40;3.10;;;16.00;56.10;16.70;101753.00;;;;4967496;28;20626;-39
2021/12/22 00:27:16;;;;;;;3.80;3.50;;;15.90;56.00;16.70;101771.00;;;;4967215;28;20239;-39
2021/12/22 00:29:46;;;;;;;3.33;3.03;;;15.90;56.20;16.70;101763.00;;;;4967524;28;20203;-39
2021/12/22 00:32:15;;;;;;;3.50;3.20;;;15.90;56.10;16.70;101767.00;;;;4967578;28;20890;-39
2021/12/22 00:34:48;;;;;;;3.60;3.30;;;15.90;56.00;16.60;101767.00;;;;4967865;28;20201;-38
2021/12/22 00:37:16;;;;;;;3.63;3.33;;;15.80;56.20;16.60;101770.00;;;;4967095;28;20257;-40
2021/12/22 00:39:43;;;;;;;3.80;3.50;;;15.80;56.20;16.60;101761.00;;;;4967738;28;20203;-40
2021/12/22 00:42:10;;;;;;;3.50;3.20;;;15.80;56.10;16.50;101759.00;;;;4967495;28;20173;-39
2021/12/22 00:44:36;;;;;;;3.30;3.00;;;15.80;56.20;16.50;101761.00;;;;4967546;28;20204;-39
2021/12/22 00:47:02;;;;;;;3.30;3.00;;;15.70;56.20;16.50;101758.00;;;;4967333;28;20192;-39
2021/12/22 00:49:28;;;;;;;3.97;3.10;;;15.70;56.30;16.50;101749.00;;;;4967402;28;20199;-39
2021/12/22 00:51:54;;;;;;;3.50;3.20;;;15.70;56.00;16.40;101741.00;;;;4967347;28;20532;-40
2021/12/22 00:54:19;;;;;;;3.30;3.00;;;15.60;56.00;16.40;101757.00;;;;4967343;28;20188;-39
2021/12/22 00:56:45;;;;;;;3.30;3.00;;;15.60;56.20;16.40;101741.00;;;;4967164;28;20192;-38
2021/12/22 00:59:11;;;;;;;3.30;3.00;;;15.60;56.20;16.30;101744.00;;;;4967613;28;20173;-40
2021/12/22 01:01:36;;;;;;;3.17;2.90;;;15.60;56.40;16.30;101746.00;;;;4966971;28;20644;-39
2021/12/22 01:04:02;;;;;;;3.00;2.80;;;15.60;56.50;16.30;101745.00;;;;4967424;28;20217;-39
2021/12/22 01:06:28;;;;;;;3.23;2.87;;;15.60;56.30;16.30;101744.00;;;;4967192;28;20215;-40
2021/12/22 01:08:54;;;;;;;3.43;3.13;;;15.60;56.10;16.30;101747.00;;;;4967316;28;20173;-40
2021/12/22 01:11:19;;;;;;;3.10;2.80;;;15.70;55.90;16.30;101748.00;;;;4967353;28;20687;-40
2021/12/22 01:13:45;;;;;;;3.00;2.80;;;15.60;55.90;16.30;101747.00;;;;4967031;28;21022;-40
2021/12/22 01:16:11;;;;;;;3.00;2.80;;;15.60;55.80;16.30;101741.00;;;;4967318;28;20231;-40
2021/12/22 01:18:37;;;;;;;3.40;2.83;;;15.60;55.70;16.30;101745.00;;;;4967341;28;20173;-40
2021/12/22 01:23:51;;;;;;;3.27;2.97;;;15.60;55.70;16.30;101739.00;;;;4967363;28;20256;-40
2021/12/22 01:26:17;;;;;;;3.17;2.90;;;15.60;55.80;16.20;101747.00;;;;4966592;28;20206;-40
2021/12/22 01:28:43;;;;;;;3.00;2.80;;;15.60;55.80;16.20;101755.00;;;;4967257;28;20305;-40
2021/12/22 01:31:14;;;;;;;2.97;2.70;;;15.50;55.70;16.20;101758.00;;;;4967375;28;20177;-40
2021/12/22 01:33:40;;;;;;;3.07;2.87;;;15.50;55.80;16.20;101757.00;;;;4967131;28;20647;-40
2021/12/22 01:36:06;;;;;;;3.30;2.80;;;15.50;55.80;16.20;101765.00;;;;4966967;28;20212;-39
2021/12/22 01:38:31;;;;;;;3.13;2.80;;;15.40;55.80;16.10;101761.00;;;;4967970;28;20184;-39
2021/12/22 01:40:57;;;;;;;3.33;3.03;;;15.40;55.70;16.10;101707.00;;;;4970870;28;20199;-39
2021/12/22 01:43:23;;;;;;;2.83;2.63;;;15.40;55.70;16.10;101774.00;;;;4971101;28;20248;-38
2021/12/22 01:46:08;;;;;;;2.97;2.77;;;15.40;55.60;16.10;101777.00;;;;4970407;28;20212;-39
2021/12/22 01:49:11;;;;;;;2.80;2.60;;;15.40;55.70;16.10;101777.00;;;;4955642;28;20244;-39
2021/12/22 01:51:51;;;;;;;2.90;2.70;;;15.30;55.60;16.10;101772.00;;;;4969292;28;20176;-40
2021/12/22 01:54:32;;;;;;;2.97;2.77;;;15.30;55.50;16.10;101764.00;;;;4970553;28;20541;-40
2021/12/22 01:57:06;;;;;;;2.60;2.40;;;15.50;55.50;16.10;101769.00;;;;4969964;28;20154;-40
2021/12/22 01:59:32;;;;;;;2.77;2.57;;;15.70;55.30;16.20;101778.00;;;;4970849;28;20164;-38
2021/12/22 02:01:57;;;;;;;2.80;2.60;;;16.00;55.00;16.40;101784.00;;;;4970135;28;20751;-38
2021/12/22 02:04:23;;;;;;;2.70;2.50;;;16.30;54.70;16.50;101776.00;;;;4952758;28;20200;-39
2021/12/22 02:06:49;;;;;;;2.70;2.50;;;16.60;54.40;16.70;101768.00;;;;4970116;28;20172;-39
2021/12/22 02:09:25;;;;;;;2.60;2.40;;;16.80;53.90;16.80;101777.00;;;;4970208;28;20169;-39
2021/12/22 02:11:51;;;;;;;2.53;2.33;;;16.90;53.70;17.00;101780.00;;;;4970407;28;20211;-39
2021/12/22 02:14:16;;;;;;;2.63;2.43;;;17.00;53.50;17.10;101775.00;;;;4970187;28;20192;-38
2021/12/22 02:16:42;;;;;;;2.90;2.60;;;17.10;53.60;17.10;101778.00;;;;4969814;28;20176;-39
2021/12/22 02:19:09;;;;;;;2.73;2.50;;;17.10;53.60;17.20;101777.00;;;;4970069;28;20173;-39
2021/12/22 02:21:41;;;;;;;2.80;2.60;;;17.10;53.60;17.30;101783.00;;;;4969921;28;20180;-40
2021/12/22 02:24:07;;;;;;;2.40;2.20;;;17.10;53.80;17.30;101776.00;;;;4968594;28;20200;-40
2021/12/22 02:29:05;;;;;;;2.70;2.50;;;17.10;54.10;17.40;101770.00;;;;4969542;28;20180;-40
2021/12/22 02:31:38;;;;;;;2.30;2.20;;;17.00;54.10;17.40;101772.00;;;;4969967;28;20181;-40
2021/12/22 02:34:05;;;;;;;2.60;2.40;;;17.00;54.30;17.40;101770.00;;;;4969849;28;20225;-40
2021/12/22 02:36:37;;;;;;;2.60;2.40;;;17.00;54.20;17.40;101769.00;;;;4969486;28;20260;-40
2021/12/22 02:39:04;;;;;;;2.33;2.13;;;16.90;54.20;17.40;101765.00;;;;4969938;28;20211;-40
2021/12/22 02:41:30;;;;;;;2.70;2.50;;;16.90;54.40;17.40;101754.00;;;;4969416;28;20883;-40
2021/12/22 02:43:57;;;;;;;3.23;2.60;;;16.90;54.50;17.40;101760.00;;;;4969635;28;20185;-39
2021/12/22 02:46:30;;;;;;;2.57;2.37;;;16.90;54.50;17.40;101752.00;;;;4971667;28;20220;-40
2021/12/22 02:48:55;;;;;;;2.60;2.40;;;16.80;54.50;17.40;101754.00;;;;4977259;28;20795;-40
2021/12/22 02:51:22;;;;;;;2.30;2.10;;;16.70;54.60;17.30;101745.00;;;;4970020;28;20228;-40
2021/12/22 02:54:01;;;;;;;2.33;2.13;;;16.70;54.60;17.30;101751.00;;;;4969163;28;20643;-39
2021/12/22 02:56:37;;;;;;;2.70;2.50;;;16.70;54.80;17.30;101754.00;;;;4969575;28;20157;-40
2021/12/22 02:59:35;;;;;;;2.40;2.20;;;16.60;54.70;17.20;101676.00;;;;4969573;28;20173;-39
2021/12/22 03:02:16;;;;;;;2.23;2.03;;;16.60;54.80;17.20;101746.00;;;;4969284;28;20192;-40
2021/12/22 03:04:49;;;;;;;2.27;2.10;;;16.50;54.90;17.20;101746.00;;;;4969125;28;20355;-40
2021/12/22 03:07:17;;;;;;;2.50;2.30;;;16.50;54.90;17.10;101756.00;;;;4969045;28;20217;-38
2021/12/22 03:09:43;;;;;;;2.27;2.10;;;16.50;55.00;17.10;101744.00;;;;4969330;28;20177;-39
2021/12/22 03:12:12;;;;;;;4.33;2.20;;;16.40;55.00;17.10;101742.00;;;;4968900;28;20188;-39
2021/12/22 03:14:37;;;;;;;2.57;2.37;;;16.40;55.00;17.10;101739.00;;;;4969153;28;20304;-39
2021/12/22 03:17:03;;;;;;;2.50;2.30;;;16.40;55.10;17.00;101742.00;;;;4968217;28;20268;-38
2021/12/22 03:19:34;;;;;;;3.47;2.20;;;16.30;55.00;17.00;101662.00;;;;4969029;28;20161;-39
2021/12/22 03:22:03;;;;;;;2.50;2.30;;;16.30;55.00;17.00;101736.00;;;;4951907;28;20201;-40
2021/12/22 03:24:30;;;;;;;2.40;2.20;;;16.30;55.10;17.00;101736.00;;;;4968619;28;20199;-39
2021/12/22 03:26:59;;;;;;;2.40;2.20;;;16.20;55.10;16.90;101734.00;;;;4968630;28;20260;-39
2021/12/22 03:29:25;;;;;;;2.40;2.20;;;16.20;55.10;16.90;101741.00;;;;4968501;28;20181;-39
2021/12/22 03:31:51;;;;;;;2.40;2.20;;;16.10;55.10;16.80;101741.00;;;;4964446;28;20324;-39
2021/12/22 03:34:17;;;;;;;2.40;2.20;;;16.10;55.10;16.80;101739.00;;;;4949548;28;20248;-39
2021/12/22 03:36:43;;;;;;;2.30;2.10;;;16.10;55.20;16.80;101747.00;;;;4949011;28;20212;-40
2021/12/22 03:39:09;;;;;;;2.77;2.27;;;16.00;55.20;16.80;101736.00;;;;4949140;28;20293;-39
2021/12/22 03:41:35;;;;;;;2.40;2.20;;;16.00;55.30;16.70;101742.00;;;;4949112;28;20181;-40
2021/12/22 03:44:04;;;;;;;2.50;2.30;;;15.90;55.30;16.70;101737.00;;;;4948195;29;20201;-38
2021/12/22 03:46:30;;;;;;;2.30;2.10;;;15.90;55.30;16.70;101724.00;;;;4948936;28;20284;-38
2021/12/22 03:48:56;;;;;;;2.30;2.10;;;15.90;55.30;16.70;101732.00;;;;4949218;28;20647;-39
2021/12/22 03:51:21;;;;;;;2.33;2.13;;;15.80;55.30;16.60;101725.00;;;;4949186;28;20573;-39
2021/12/22 03:53:47;;;;;;;2.20;2.00;;;15.80;55.30;16.60;101727.00;;;;4951737;28;20169;-40
2021/12/22 03:56:13;;;;;;;2.27;2.07;;;15.80;55.40;16.60;101732.00;;;;4952408;28;20178;-39
2021/12/22 03:58:39;;;;;;;2.30;2.10;;;15.70;55.30;16.50;101726.00;;;;4948822;28;20178;-39
2021/12/22 04:01:05;;;;;;;2.20;2.00;;;15.70;55.30;16.50;101734.00;;;;4948228;28;20184;-39
2021/12/22 04:03:33;;;;;;;2.40;2.20;;;15.70;55.30;16.50;101737.00;;;;4949052;28;20181;-39
2021/12/22 04:05:59;;;;;;;2.33;2.13;;;15.60;55.40;16.40;101747.00;;;;4948885;28;20212;-40
2021/12/22 04:08:25;;;;;;;2.40;2.20;;;15.60;55.50;16.40;101742.00;;;;4948835;28;20185;-40
2021/12/22 04:10:51;;;;;;;2.30;2.10;;;15.60;55.60;16.40;101738.00;;;;4949027;28;20169;-38
2021/12/22 04:13:17;;;;;;;2.10;1.90;;;15.60;55.70;16.40;101732.00;;;;4948943;28;20205;-39
2021/12/22 04:15:44;;;;;;;3.17;2.60;;;15.50;55.80;16.30;101730.00;;;;4948804;28;20271;-40
2021/12/22 04:18:10;;;;;;;2.20;2.07;;;15.50;55.80;16.30;101749.00;;;;4948562;28;20185;-39
2021/12/22 04:20:36;;;;;;;2.40;2.20;;;15.50;55.80;16.30;101743.00;;;;4948322;28;20185;-40
2021/12/22 04:23:02;;;;;;;2.47;2.27;;;15.40;55.70;16.20;101748.00;;;;4948124;28;20564;-40
2021/12/22 04:25:27;;;;;;;2.17;2.03;;;15.40;55.80;16.20;101747.00;;;;4948357;28;20696;-40
2021/12/22 04:27:56;;;;;;;2.43;2.23;;;15.40;55.80;16.20;101746.00;;;;4948112;28;20205;-39
2021/12/22 04:30:23;;;;;;;7.23;2.20;;;15.30;55.80;16.20;101753.00;;;;4948805;28;20621;-39
2021/12/22 04:32:49;;;;;;;6.13;2.23;;;15.40;57.00;16.20;101753.00;;;;4948148;28;20256;-40
2021/12/22 04:35:15;;;;;;;3.33;2.17;;;15.50;56.10;16.00;101756.00;;;;4948269;28;20289;-39
2021/12/22 04:37:41;;;;;;;6.60;2.07;;;15.70;55.80;16.30;101763.00;;;;4947994;28;20188;-40
2021/12/22 04:40:07;;;;;;;2.50;2.00;;;16.00;55.20;16.40;101763.00;;;;4948447;28;20178;-39
2021/12/22 04:42:33;;;;;;;2.30;2.10;;;16.20;54.80;16.60;101762.00;;;;4951123;28;20212;-39
2021/12/22 04:45:01;;;;;;;3.23;2.20;;;16.50;54.20;16.70;101760.00;;;;4966485;28;20204;-39
2021/12/22 04:47:26;;;;;;;3.70;2.00;;;16.80;54.10;16.90;101764.00;;;;4966840;28;20264;-39
2021/12/22 04:49:52;;;;;;;3.93;2.03;;;16.90;54.10;17.00;101758.00;;;;4966297;28;20259;-40
2021/12/22 04:52:20;;;;;;;2.63;2.10;;;17.00;53.90;17.10;101756.00;;;;4967087;28;20187;-40
2021/12/22 04:55:03;;;;;;;4.50;2.00;;;17.10;53.90;17.20;101766.00;;;;4967526;28;20790;-40
2021/12/22 04:57:32;;;;;;;4.03;1.90;;;17.10;53.80;17.30;101771.00;;;;4966844;28;20165;-39
2021/12/22 05:00:00;;;;;;;4.93;2.30;;;17.10;53.70;17.30;101757.00;;;;4967379;28;20173;-40
2021/12/22 05:02:26;;;;;;;4.13;2.07;;;17.20;53.80;17.40;101753.00;;;;4966941;28;20157;-40
2021/12/22 05:04:52;;;;;;;3.73;1.90;;;17.20;53.90;17.40;101739.00;;;;4966882;28;20258;-40
2021/12/22 05:07:18;;;;;;;2.20;2.00;;;17.10;54.00;17.40;101748.00;;;;4966730;28;20165;-40
2021/12/22 05:09:44;;;;;;;2.93;2.10;;;17.10;53.90;17.50;101747.00;;;;4967197;28;20173;-38
2021/12/22 05:12:09;;;;;;;1.77;1.67;;;17.10;54.00;17.50;101751.00;;;;4966967;28;20672;-39
2021/12/22 05:14:35;;;;;;;2.23;2.00;;;17.00;54.10;17.50;101746.00;;;;4970232;28;20231;-39
2021/12/22 05:17:04;;;;;;;2.13;1.93;;;17.00;54.20;17.50;101739.00;;;;4970306;28;20204;-40
2021/12/22 05:19:30;;;;;;;3.10;2.10;;;16.90;54.20;17.50;101740.00;;;;4971223;28;20235;-39
2021/12/22 05:21:56;;;;;;;2.70;2.20;;;16.90;53.80;17.40;101743.00;;;;4970046;28;20181;-39
2021/12/22 05:24:22;;;;;;;2.83;2.10;;;16.80;53.50;17.40;101729.00;;;;4971115;28;20758;-39
2021/12/22 05:26:48;;;;;;;2.87;2.10;;;16.80;53.70;17.40;101734.00;;;;4970102;28;20292;-39
2021/12/22 05:29:14;;;;;;;4.27;2.10;;;16.80;53.80;17.40;101733.00;;;;4970597;28;20161;-39
2021/12/22 05:31:40;;;;;;;5.90;1.90;;;16.80;54.10;17.40;101729.00;;;;4970150;28;20224;-39
2021/12/22 05:34:06;;;;;;;2.33;1.83;;;16.70;54.00;17.30;101735.00;;;;4970632;28;20212;-40
2021/12/22 05:36:31;;;;;;;2.77;2.00;;;16.60;54.00;17.30;101733.00;;;;4970280;28;20660;-40
2021/12/22 05:38:57;;;;;;;6.07;1.90;;;16.70;54.10;17.30;101734.00;;;;4970608;28;20169;-39
2021/12/22 05:41:23;;;;;;;2.27;2.00;;;16.60;54.30;17.30;101752.00;;;;4970818;28;20639;-40
2021/12/22 05:43:49;;;;;;;4.77;2.30;;;16.60;53.90;17.20;101739.00;;;;4970595;28;20242;-39
2021/12/22 05:46:15;;;;;;;2.73;2.30;;;16.50;53.60;17.20;101734.00;;;;4969718;28;20915;-39
2021/12/22 05:48:40;;;;;;;2.77;2.30;;;16.40;53.30;17.10;101724.00;;;;4970437;28;20161;-40
2021/12/22 05:51:07;;;;;;;2.97;2.30;;;16.40;53.20;17.10;101738.00;;;;4969754;28;20260;-40
2021/12/22 05:53:32;;;;;;;8.63;2.60;;;16.40;53.40;17.10;101731.00;;;;4970524;28;20177;-40
2021/12/22 05:55:58;;;;;;;5.00;2.00;;;16.40;53.70;17.10;101740.00;;;;4969857;28;20215;-39
2021/12/22 05:58:25;;;;;;;5.80;2.20;;;16.30;54.30;17.00;101729.00;;;;4970153;28;20195;-39
2021/12/22 06:00:51;;;;;;;3.70;2.20;;;16.30;53.70;17.00;101742.00;;;;4970309;28;20180;-38
2021/12/22 06:03:16;;;;;;;5.13;2.00;;;16.30;53.90;17.00;101735.00;;;;4970856;28;20173;-39
2021/12/22 06:05:42;;;;;;;6.00;2.13;;;16.20;53.90;16.70;101727.00;;;;4970119;28;20201;-39
2021/12/22 06:08:08;;;;;;;3.80;2.27;;;16.10;54.00;16.90;101728.00;;;;4969761;28;20181;-40
2021/12/22 06:10:34;;;;;;;3.30;2.30;;;16.10;54.00;16.90;101727.00;;;;4969821;28;20590;-38
2021/12/22 06:13:10;;;;;;;2.30;2.07;;;16.10;54.20;16.80;101733.00;;;;4969604;28;20169;-39
2021/12/22 06:15:37;;;;;;;3.30;2.10;;;16.00;54.10;16.80;101719.00;;;;4969793;28;20253;-38
2021/12/22 06:18:03;;;;;;;3.03;2.30;;;16.00;54.20;16.80;101716.00;;;;4969623;28;20200;-40
2021/12/22 06:20:29;;;;;;;3.03;2.03;;;16.00;54.20;16.70;101709.00;;;;4969681;28;20691;-39
2021/12/22 06:22:55;;;;;;;4.77;2.10;;;15.90;54.20;16.70;101711.00;;;;4967303;28;20181;-39
2021/12/22 06:25:21;;;;;;;3.40;1.90;;;15.90;54.30;16.70;101711.00;;;;4971457;28;20211;-39
2021/12/22 06:27:47;;;;;;;2.40;2.00;;;15.80;54.30;16.60;101727.00;;;;4971277;28;20196;-39
2021/12/22 06:30:12;;;;;;;2.63;2.20;;;15.80;54.50;16.60;101713.00;;;;4972022;28;20177;-40
2021/12/22 06:32:38;;;;;;;2.97;1.90;;;15.80;54.40;16.60;101725.00;;;;4971910;28;20173;-40
2021/12/22 06:35:04;;;;;;;2.20;1.90;;;15.80;54.60;16.60;101725.00;;;;4971634;28;20211;-40
2021/12/22 06:37:30;;;;;;;3.27;2.00;;;15.70;54.50;16.50;101735.00;;;;4971440;28;20200;-39
2021/12/22 06:39:56;;;;;;;2.23;2.00;;;15.70;54.50;16.50;101732.00;;;;4971396;28;20548;-39
2021/12/22 06:42:23;;;;;;;2.10;1.90;;;15.60;54.60;16.50;101732.00;;;;4971560;28;20744;-39
2021/12/22 06:44:49;;;;;;;1.90;1.80;;;15.60;54.60;16.40;101726.00;;;;4971444;28;20288;-40
2021/12/22 06:47:15;;;;;;;2.43;2.00;;;15.50;54.60;16.40;101716.00;;;;4970979;28;20215;-40
2021/12/22 06:49:41;;;;;;;3.23;2.07;;;15.60;54.80;16.30;101726.00;;;;4971666;28;20644;-40
2021/12/22 06:52:06;;;;;;;2.30;1.90;;;15.60;54.80;16.30;101726.00;;;;4971406;28;20172;-40
2021/12/22 06:54:32;;;;;;;2.30;2.00;;;15.70;54.60;16.40;101723.00;;;;4971630;28;20624;-40
2021/12/22 06:56:58;;;;;;;2.07;1.87;;;15.90;54.20;16.50;101730.00;;;;4970575;28;20575;-39
2021/12/22 06:59:24;;;;;;;1.83;1.73;;;16.20;53.80;16.60;101648.00;;;;4971802;28;20180;-39
2021/12/22 07:01:50;;;;;;;2.00;1.80;;;16.50;53.50;16.80;101737.00;;;;4971367;28;20169;-39
2021/12/22 07:04:17;;;;;;;2.20;1.93;;;16.80;53.00;16.90;101722.00;;;;4971578;28;20197;-39
2021/12/22 07:06:43;;;;;;;1.90;1.70;;;16.90;52.60;17.00;101715.00;;;;4970675;28;20193;-39
2021/12/22 07:09:09;;;;;;;2.60;1.80;;;17.20;52.40;17.20;101711.00;;;;4971364;28;20224;-39
2021/12/22 07:11:35;;;;;;;2.63;1.90;;;17.20;52.30;17.20;101709.00;;;;4971118;28;20162;-39
2021/12/22 07:14:02;;;;;;;1.77;1.67;;;17.30;52.40;17.30;101710.00;;;;4971118;28;20196;-38
2021/12/22 07:16:27;;;;;;;1.70;1.60;;;17.30;52.40;17.40;101711.00;;;;4970820;28;20176;-40
2021/12/22 07:18:53;;;;;;;1.90;1.80;;;17.20;52.30;17.40;101713.00;;;;4971194;28;20177;-39
2021/12/22 07:21:19;;;;;;;1.90;1.80;;;17.20;52.40;17.50;101716.00;;;;4970994;28;20236;-39
2021/12/22 07:23:45;;;;;;;2.00;1.80;;;17.20;52.60;17.50;101714.00;;;;4970800;28;20177;-39
2021/12/22 07:26:13;;;;;;;1.90;1.80;;;17.20;52.70;17.50;101701.00;;;;4969811;28;20203;-40
2021/12/22 07:28:46;;;;;;;1.90;1.80;;;17.20;52.70;17.60;101714.00;;;;4970966;28;20239;-39
2021/12/22 07:31:13;;;;;;;1.97;1.83;;;17.10;52.70;17.50;101717.00;;;;4970981;28;20188;-45
2021/12/22 07:33:42;;;;;;;1.90;1.80;;;17.00;52.80;17.50;101698.00;;;;4974078;28;20169;-40
2021/12/22 07:36:08;;;;;;;1.80;1.70;;;17.00;53.10;17.50;101717.00;;;;4969220;28;20239;-41
2021/12/22 07:38:40;;;;;;;1.90;1.80;;;16.90;53.00;17.50;101712.00;;;;4970683;28;20173;-40
2021/12/22 07:41:07;;;;;;;2.30;1.77;;;16.90;53.10;17.50;101714.00;;;;4972321;28;20681;-40
2021/12/22 07:43:32;;;;;;;1.90;1.80;;;16.90;53.20;17.50;101722.00;;;;4971691;28;20153;-39
2021/12/22 07:46:00;;;;;;;1.80;1.70;;;16.90;53.40;17.50;101698.00;;;;4970286;28;20201;-39
2021/12/22 07:48:25;;;;;;;1.87;1.70;;;16.80;53.40;17.40;101699.00;;;;4970465;28;20176;-41
2021/12/22 07:50:51;;;;;;;2.00;1.80;;;16.80;53.50;17.40;101712.00;;;;4970345;28;20169;-40
2021/12/22 07:53:17;;;;;;;1.70;1.60;;;16.70;53.30;17.40;101716.00;;;;4970432;28;20671;-39
2021/12/22 07:55:43;;;;;;;2.30;1.80;;;16.70;53.40;17.40;101709.00;;;;4970420;28;20882;-39
2021/12/22 07:58:08;;;;;;;2.07;1.97;;;16.70;53.50;17.30;101711.00;;;;4969981;28;20188;-40
2021/12/22 08:00:35;;;;;;;2.20;2.00;;;16.70;53.60;17.30;101711.00;;;;4970495;28;20162;-40
2021/12/22 08:03:01;;;;;;;42.93;2.83;;;16.60;53.70;17.30;101708.00;;;;4970110;28;20540;-39
2021/12/22 08:05:26;;;;;;;9.00;2.60;;;16.60;53.90;17.30;101709.00;;;;4969892;28;20209;-40
2021/12/22 08:07:53;;;;;;;4.50;2.10;;;16.60;54.00;17.30;101710.00;;;;4969425;28;20177;-38
2021/12/22 08:10:19;;;;;;;2.50;2.30;;;16.70;54.00;17.30;101699.00;;;;4970521;28;20305;-39
2021/12/22 08:12:44;;;;;;;2.43;2.23;;;16.80;53.70;17.30;101705.00;;;;4969254;28;20669;-39
2021/12/22 08:15:10;;;;;;;3.43;2.27;;;16.80;53.50;17.30;101705.00;;;;4968599;28;20193;-39
2021/12/22 08:17:36;;;;;;;2.40;2.20;;;16.80;54.10;17.30;101714.00;;;;4970419;28;20177;-39
2021/12/22 08:20:03;;;;;;;2.53;2.33;;;17.00;53.50;17.40;101700.00;;;;4968879;28;20173;-39
2021/12/22 08:22:29;;;;;;;2.83;2.50;;;17.00;53.30;17.50;101714.00;;;;4968359;28;20180;-38
2021/12/22 08:24:55;;;;;;;3.47;2.27;;;17.30;53.10;17.50;101720.00;;;;4968254;28;20211;-40
2021/12/22 08:27:23;;;;;;;2.50;2.30;;;17.40;52.40;17.60;101726.00;;;;4967775;28;20161;-39
2021/12/22 08:29:50;;;;;;;4.80;2.60;;;17.60;52.90;17.70;101717.00;;;;4950481;28;20221;-39
2021/12/22 08:32:15;;;;;;;4.87;2.77;;;17.80;51.60;17.80;101723.00;;;;4950995;28;20890;-40
2021/12/22 08:34:42;;;;;;;2.80;2.40;;;17.80;51.00;17.90;101715.00;;;;4951093;28;20284;-40
2021/12/22 08:39:53;;;;;;;2.70;2.50;;;17.90;50.60;18.00;101711.00;;;;4973893;28;20164;-39
2021/12/22 08:42:20;;;;;;;2.97;2.40;;;17.90;50.30;18.00;101709.00;;;;4970966;28;20589;-40
2021/12/22 08:44:45;;;;;;;5.00;2.43;;;17.80;50.80;18.00;101713.00;;;;4969720;28;20216;-40
2021/12/22 08:47:11;;;;;;;2.40;2.20;;;17.80;50.00;18.00;101711.00;;;;4969431;28;20242;-38
2021/12/22 08:49:37;;;;;;;3.50;2.70;;;17.70;50.00;18.00;101708.00;;;;4969539;28;20184;-39
2021/12/22 08:52:04;;;;;;;7.03;2.73;;;17.70;51.10;18.00;101704.00;;;;4969662;28;20172;-39
2021/12/22 08:54:29;;;;;;;6.20;2.70;;;17.60;51.70;18.00;101717.00;;;;4969694;28;20544;-38
2021/12/22 08:56:55;;;;;;;6.47;2.57;;;17.60;53.20;18.00;101704.00;;;;4968819;28;20179;-37
2021/12/22 08:59:22;;;;;;;9.03;2.70;;;17.60;52.50;18.00;101705.00;;;;4969554;28;20166;-37
2021/12/22 09:01:48;;;;;;;6.83;2.50;;;17.50;52.60;18.00;101707.00;;;;4969142;28;20243;-38
2021/12/22 09:04:13;;;;;;;6.73;2.40;;;17.50;52.70;18.00;101705.00;;;;4969012;28;20979;-38
2021/12/22 09:06:39;;;;;;;6.20;2.73;;;17.50;53.00;18.00;101713.00;;;;4968909;28;20208;-38
2021/12/22 09:09:05;;;;;;;5.90;2.43;;;17.40;53.20;18.00;101707.00;;;;4969256;28;20173;-38
2021/12/22 09:11:31;;;;;;;4.23;2.30;;;17.50;53.60;18.00;101707.00;;;;4969058;28;20173;-37
2021/12/22 09:13:57;;;;;;;4.83;2.30;;;17.40;53.60;17.90;101704.00;;;;4959369;28;20174;-37
2021/12/22 09:16:23;;;;;;;4.10;2.57;;;17.30;53.80;17.90;101713.00;;;;4958209;28;20178;-39
2021/12/22 09:18:48;;;;;;;3.20;2.60;;;17.20;53.70;17.90;101717.00;;;;4957285;28;20217;-39
2021/12/22 09:21:16;;;;;;;3.50;2.30;;;17.30;53.80;17.90;101713.00;;;;4949633;28;20170;-39
2021/12/22 09:23:42;;;;;;;4.17;2.27;;;17.20;53.90;17.80;101651.00;;;;4950090;28;20181;-39
2021/12/22 09:26:07;;;;;;;4.63;2.30;;;17.20;53.70;17.80;101712.00;;;;4948472;29;20198;-39
2021/12/22 09:28:33;;;;;;;3.23;2.40;;;17.10;53.60;17.80;101721.00;;;;4949730;28;20192;-39
2021/12/22 09:30:59;;;;;;;2.63;2.30;;;17.10;53.60;17.70;101717.00;;;;4949968;28;20220;-39
2021/12/22 09:33:25;;;;;;;4.23;2.27;;;17.00;53.60;17.70;101718.00;;;;4949501;28;20323;-38
2021/12/22 09:35:54;;;;;;;4.20;2.70;;;17.00;53.50;17.70;101727.00;;;;4950030;28;20201;-38
2021/12/22 09:38:19;;;;;;;4.67;2.27;;;16.90;53.50;17.60;101726.00;;;;4949387;28;20280;-38
2021/12/22 09:40:46;;;;;;;4.40;2.60;;;16.90;53.60;17.60;101725.00;;;;4949927;28;20657;-39
2021/12/22 09:43:11;;;;;;;3.57;2.50;;;16.80;53.70;17.60;101722.00;;;;4949974;28;20169;-39
2021/12/22 09:45:43;;;;;;;2.40;2.20;;;16.80;53.70;17.50;101714.00;;;;4950539;28;20671;-38
2021/12/22 09:50:53;;;;;;;3.50;2.57;;;16.80;54.10;17.50;101711.00;;;;4969448;28;20173;-38
2021/12/22 09:53:21;;;;;;;2.83;2.20;;;16.90;54.00;17.50;101702.00;;;;4955860;28;20174;-38
2021/12/22 09:55:47;;;;;;;2.97;2.37;;;17.20;53.50;17.60;101701.00;;;;4968584;28;20554;-38
2021/12/22 09:58:14;;;;;;;3.23;2.23;;;17.50;53.10;17.70;101708.00;;;;4956439;28;20240;-38
2021/12/22 10:00:40;;;;;;;2.97;2.40;;;17.70;52.70;17.80;101703.00;;;;4954756;28;20185;-38
2021/12/22 10:03:07;;;;;;;4.57;2.53;;;17.90;52.50;18.00;101691.00;;;;4970270;28;20667;-38
2021/12/22 10:05:34;;;;;;;2.60;2.33;;;18.20;52.30;18.10;101691.00;;;;4962144;28;20204;-38
2021/12/22 10:08:09;;;;;;;3.97;2.50;;;18.30;51.90;18.30;101691.00;;;;4962679;28;20200;-38
2021/12/22 10:10:38;;;;;;;4.77;2.40;;;18.40;51.80;18.30;101684.00;;;;4965188;28;20549;-38
2021/12/22 10:13:12;;;;;;;2.77;2.40;;;18.40;51.90;18.40;101682.00;;;;4960408;28;20835;-38
2021/12/22 10:15:38;;;;;;;6.67;2.60;;;18.50;52.00;18.50;101601.00;;;;4952920;28;20188;-39
2021/12/22 10:18:13;;;;;;;4.57;2.70;;;18.40;52.30;18.50;101692.00;;;;4951063;29;20795;-39
2021/12/22 10:20:39;;;;;;;5.03;2.50;;;18.40;52.50;18.50;101694.00;;;;4953137;28;20173;-39
2021/12/22 10:23:34;;;;;;;7.53;2.20;;;18.30;52.70;18.60;101681.00;;;;4951333;29;20655;-38
2021/12/22 10:26:05;;;;;;;5.93;2.67;;;18.30;52.50;18.60;101693.00;;;;4947632;29;20370;-38
2021/12/22 10:28:50;;;;;;;7.83;2.60;;;18.30;52.70;18.60;101683.00;;;;4952975;28;20182;-39
2021/12/22 10:31:18;;;;;;;8.13;2.80;;;18.30;52.80;18.60;101673.00;;;;4952447;28;20176;-38
2021/12/22 10:33:44;;;;;;;10.00;2.73;;;18.30;53.10;18.40;101679.00;;;;4952713;28;20177;-39
2021/12/22 10:36:18;;;;;;;6.67;2.70;;;18.20;53.10;18.60;101687.00;;;;4952522;28;20166;-39
2021/12/22 10:38:53;;;;;;;6.70;2.50;;;18.20;53.10;18.60;101686.00;;;;4951357;29;20180;-39
2021/12/22 10:41:20;;;;;;;6.43;2.87;;;18.20;53.20;18.60;101682.00;;;;4952435;28;20169;-38
2021/12/22 10:43:50;;;;;;;7.93;2.97;;;18.10;53.40;18.60;101682.00;;;;4952155;28;20186;-38
2021/12/22 10:46:32;;;;;;;4.37;2.50;;;18.10;53.20;18.50;101685.00;;;;4951617;28;20193;-39
2021/12/22 10:49:19;;;;;;;5.63;2.47;;;18.10;53.30;18.50;101680.00;;;;4952403;28;20209;-38
2021/12/22 10:51:57;;;;;;;5.50;2.60;;;18.00;53.40;18.50;101679.00;;;;4952127;28;20641;-38
2021/12/22 10:54:33;;;;;;;8.73;2.60;;;18.00;53.50;18.50;101665.00;;;;4952266;28;20245;-38
2021/12/22 10:57:00;;;;;;;3.20;2.50;;;18.00;53.80;18.40;101666.00;;;;4951521;28;20257;-38
2021/12/22 10:59:25;;;;;;;3.97;2.50;;;17.80;53.60;18.40;101656.00;;;;4952164;28;20216;-41